Terminal Aerodrome Forecast
Issued by NWS

Current Version | Previous Version | Graphics & Text | Print | Product List | Glossary On
Versions: 1 2 3 4 5 6 7 8 9 10 11 12 13 14 15 16 17 18
531
FTUS41 KILN 211733
TAFLCK
TAF
KLCK 211733Z 2118/2218 20011KT P6SM VCTS BKN015CB OVC035
      TEMPO 2119/2122 3SM -TSRA BR OVC015CB
     FM212200 23010KT P6SM VCSH BKN027
     FM220200 26008KT P6SM BKN050
     FM221200 27010KT P6SM FEW035 SCT250=

USA.gov is the U.S. government's official web portal to all federal, state and local government web resources and services.